sensor_id;sensor_type;location;lat;lon;timestamp;pressure;altitude;pressure_sealevel;temperature;humidity
47883;BME280;37739;50.350;7.578;2022-07-04T00:00:45;100057.94;;;20.91;48.02
47883;BME280;37739;50.350;7.578;2022-07-04T00:03:10;100059.63;;;20.47;49.85
47883;BME280;37739;50.350;7.578;2022-07-04T00:05:35;100057.91;;;20.31;49.74
47883;BME280;37739;50.350;7.578;2022-07-04T00:08:02;100065.72;;;20.42;49.47
47883;BME280;37739;50.350;7.578;2022-07-04T00:10:29;100059.66;;;20.56;49.33
47883;BME280;37739;50.350;7.578;2022-07-04T00:12:55;100057.06;;;20.61;49.05
47883;BME280;37739;50.350;7.578;2022-07-04T00:15:22;100058.81;;;20.67;48.75
47883;BME280;37739;50.350;7.578;2022-07-04T00:17:50;100059.69;;;20.63;48.69
47883;BME280;37739;50.350;7.578;2022-07-04T00:20:16;100058.84;;;20.65;48.86
47883;BME280;37739;50.350;7.578;2022-07-04T00:22:41;100070.06;;;20.56;48.90
47883;BME280;37739;50.350;7.578;2022-07-04T00:25:07;100063.16;;;20.65;49.01
47883;BME280;37739;50.350;7.578;2022-07-04T00:27:35;100057.94;;;20.66;48.90
47883;BME280;37739;50.350;7.578;2022-07-04T00:30:04;100053.56;;;20.59;48.76
47883;BME280;37739;50.350;7.578;2022-07-04T00:32:32;100055.31;;;20.52;49.75
47883;BME280;37739;50.350;7.578;2022-07-04T00:34:57;100061.38;;;20.44;49.26
47883;BME280;37739;50.350;7.578;2022-07-04T00:37:22;100052.69;;;20.49;49.11
47883;BME280;37739;50.350;7.578;2022-07-04T00:39:48;100046.63;;;20.41;49.37
47883;BME280;37739;50.350;7.578;2022-07-04T00:42:15;100041.38;;;20.26;50.08
47883;BME280;37739;50.350;7.578;2022-07-04T00:44:41;100042.25;;;20.23;49.74
47883;BME280;37739;50.350;7.578;2022-07-04T00:47:11;100040.53;;;20.30;49.77
47883;BME280;37739;50.350;7.578;2022-07-04T00:49:38;100038.78;;;20.32;49.50
47883;BME280;37739;50.350;7.578;2022-07-04T00:52:12;100040.53;;;20.30;50.50
47883;BME280;37739;50.350;7.578;2022-07-04T00:54:38;100035.34;;;20.34;49.45
47883;BME280;37739;50.350;7.578;2022-07-04T00:57:06;100044.88;;;20.28;49.88
47883;BME280;37739;50.350;7.578;2022-07-04T00:59:34;100036.16;;;20.18;50.09
47883;BME280;37739;50.350;7.578;2022-07-04T01:01:59;100034.44;;;20.17;49.89
47883;BME280;37739;50.350;7.578;2022-07-04T01:04:25;100041.34;;;20.09;50.17
47883;BME280;37739;50.350;7.578;2022-07-04T01:06:53;100043.97;;;20.04;50.42
47883;BME280;37739;50.350;7.578;2022-07-04T01:09:19;100043.09;;;20.07;50.15
47883;BME280;37739;50.350;7.578;2022-07-04T01:11:44;100046.56;;;20.16;49.83
47883;BME280;37739;50.350;7.578;2022-07-04T01:14:09;100048.31;;;20.14;49.87
47883;BME280;37739;50.350;7.578;2022-07-04T01:16:39;100049.19;;;20.13;50.23
47883;BME280;37739;50.350;7.578;2022-07-04T01:19:05;100045.69;;;20.05;50.49
47883;BME280;37739;50.350;7.578;2022-07-04T01:21:32;100047.41;;;19.97;50.71
47883;BME280;37739;50.350;7.578;2022-07-04T01:23:57;100055.22;;;19.97;50.40
47883;BME280;37739;50.350;7.578;2022-07-04T01:26:23;100057.81;;;19.92;50.59
47883;BME280;37739;50.350;7.578;2022-07-04T01:28:48;100059.53;;;19.86;50.80
47883;BME280;37739;50.350;7.578;2022-07-04T01:31:13;100063.88;;;19.85;50.57
47883;BME280;37739;50.350;7.578;2022-07-04T01:33:39;100064.72;;;19.81;50.56
47883;BME280;37739;50.350;7.578;2022-07-04T01:36:06;100073.41;;;19.81;50.47
47883;BME280;37739;50.350;7.578;2022-07-04T01:38:35;100066.44;;;19.76;51.13
47883;BME280;37739;50.350;7.578;2022-07-04T01:41:00;100075.94;;;19.69;51.27
47883;BME280;37739;50.350;7.578;2022-07-04T01:43:25;100080.22;;;19.64;51.31
47883;BME280;37739;50.350;7.578;2022-07-04T01:45:50;100075.91;;;19.61;50.97
47883;BME280;37739;50.350;7.578;2022-07-04T01:48:16;100079.34;;;19.62;51.27
47883;BME280;37739;50.350;7.578;2022-07-04T01:50:44;100078.50;;;19.65;51.05
47883;BME280;37739;50.350;7.578;2022-07-04T01:53:09;100083.72;;;19.61;51.07
47883;BME280;37739;50.350;7.578;2022-07-04T01:55:34;100085.41;;;19.58;51.39
47883;BME280;37739;50.350;7.578;2022-07-04T01:58:00;100080.16;;;19.53;51.40
47883;BME280;37739;50.350;7.578;2022-07-04T02:00:28;100084.53;;;19.50;51.47
47883;BME280;37739;50.350;7.578;2022-07-04T02:03:12;100086.22;;;19.45;51.69
47883;BME280;37739;50.350;7.578;2022-07-04T02:05:40;100082.69;;;19.38;51.63
47883;BME280;37739;50.350;7.578;2022-07-04T02:08:07;100087.03;;;19.34;52.25
47883;BME280;37739;50.350;7.578;2022-07-04T02:10:35;100090.50;;;19.36;51.37
47883;BME280;37739;50.350;7.578;2022-07-04T02:13:03;100096.59;;;19.38;51.56
47883;BME280;37739;50.350;7.578;2022-07-04T02:15:32;100099.16;;;19.35;51.66
47883;BME280;37739;50.350;7.578;2022-07-04T02:18:02;100099.09;;;19.26;52.16
47883;BME280;37739;50.350;7.578;2022-07-04T02:20:28;100100.81;;;19.22;52.08
47883;BME280;37739;50.350;7.578;2022-07-04T02:22:53;100106.03;;;19.21;52.09
47883;BME280;37739;50.350;7.578;2022-07-04T02:25:24;100111.22;;;19.22;51.85
47883;BME280;37739;50.350;7.578;2022-07-04T02:27:49;100111.19;;;19.18;51.88
47883;BME280;37739;50.350;7.578;2022-07-04T02:30:14;100113.72;;;19.09;52.17
47883;BME280;37739;50.350;7.578;2022-07-04T02:32:40;100117.19;;;19.08;52.00
47883;BME280;37739;50.350;7.578;2022-07-04T02:35:09;100118.59;;;18.72;53.04
47883;BME280;37739;50.350;7.578;2022-07-04T02:37:34;100118.75;;;18.86;52.81
47883;BME280;37739;50.350;7.578;2022-07-04T02:39:59;100120.25;;;18.62;53.38
47883;BME280;37739;50.350;7.578;2022-07-04T02:42:30;100120.44;;;18.80;53.12
47883;BME280;37739;50.350;7.578;2022-07-04T02:44:58;100126.50;;;18.81;52.78
47883;BME280;37739;50.350;7.578;2022-07-04T02:47:26;100122.81;;;18.60;53.22
47883;BME280;37739;50.350;7.578;2022-07-04T02:49:54;100121.91;;;18.54;53.22
47883;BME280;37739;50.350;7.578;2022-07-04T02:52:20;100126.22;;;18.53;53.35
47883;BME280;37739;50.350;7.578;2022-07-04T02:54:45;100121.06;;;18.56;53.32
47883;BME280;37739;50.350;7.578;2022-07-04T02:57:14;100122.88;;;18.65;53.24
47883;BME280;37739;50.350;7.578;2022-07-04T02:59:40;100121.22;;;18.73;52.64
47883;BME280;37739;50.350;7.578;2022-07-04T03:02:06;100126.41;;;18.76;52.41
47883;BME280;37739;50.350;7.578;2022-07-04T03:04:31;100129.00;;;18.72;52.30
47883;BME280;37739;50.350;7.578;2022-07-04T03:06:56;100130.69;;;18.65;52.42
47883;BME280;37739;50.350;7.578;2022-07-04T03:09:22;100127.19;;;18.63;52.73
47883;BME280;37739;50.350;7.578;2022-07-04T03:11:51;100136.75;;;18.66;52.74
47883;BME280;37739;50.350;7.578;2022-07-04T03:14:19;100136.69;;;18.62;52.77
47883;BME280;37739;50.350;7.578;2022-07-04T03:16:45;100134.91;;;18.55;52.83
47883;BME280;37739;50.350;7.578;2022-07-04T03:19:13;100132.25;;;18.51;53.14
47883;BME280;37739;50.350;7.578;2022-07-04T03:21:42;100139.16;;;18.47;53.05
47883;BME280;37739;50.350;7.578;2022-07-04T03:24:10;100140.84;;;18.45;52.80
47883;BME280;37739;50.350;7.578;2022-07-04T03:26:35;100141.63;;;18.38;53.29
47883;BME280;37739;50.350;7.578;2022-07-04T03:29:03;100138.22;;;18.40;53.09
47883;BME280;37739;50.350;7.578;2022-07-04T03:31:31;100138.22;;;18.40;53.09
47883;BME280;37739;50.350;7.578;2022-07-04T03:33:56;100132.13;;;18.37;53.16
47883;BME280;37739;50.350;7.578;2022-07-04T03:36:27;100128.63;;;18.33;53.65
47883;BME280;37739;50.350;7.578;2022-07-04T03:38:54;100133.75;;;18.30;53.48
47883;BME280;37739;50.350;7.578;2022-07-04T03:41:20;100132.91;;;18.31;53.37
47883;BME280;37739;50.350;7.578;2022-07-04T03:43:45;100139.00;;;18.33;53.45
47883;BME280;37739;50.350;7.578;2022-07-04T03:46:10;100137.31;;;18.37;53.34
47883;BME280;37739;50.350;7.578;2022-07-04T03:48:36;100143.38;;;18.37;53.31
47883;BME280;37739;50.350;7.578;2022-07-04T03:51:01;100139.88;;;18.34;53.63
47883;BME280;37739;50.350;7.578;2022-07-04T03:53:31;100139.81;;;18.29;53.70
47883;BME280;37739;50.350;7.578;2022-07-04T03:55:59;100146.78;;;18.33;53.58
47883;BME280;37739;50.350;7.578;2022-07-04T03:58:26;100158.84;;;18.27;53.87
47883;BME280;37739;50.350;7.578;2022-07-04T04:00:51;100156.97;;;18.13;54.47
47883;BME280;37739;50.350;7.578;2022-07-04T04:03:17;100153.56;;;18.17;54.39
47883;BME280;37739;50.350;7.578;2022-07-04T04:06:01;100148.41;;;18.23;54.19
47883;BME280;37739;50.350;7.578;2022-07-04T04:08:26;100151.84;;;18.22;54.49
47883;BME280;37739;50.350;7.578;2022-07-04T04:10:51;100153.69;;;18.30;54.57
47883;BME280;37739;50.350;7.578;2022-07-04T04:13:17;100157.25;;;18.39;54.12
47883;BME280;37739;50.350;7.578;2022-07-04T04:15:42;100153.84;;;18.42;54.05
47883;BME280;37739;50.350;7.578;2022-07-04T04:18:07;100157.22;;;18.35;54.07
47883;BME280;37739;50.350;7.578;2022-07-04T04:20:33;100160.66;;;18.32;54.01
47883;BME280;37739;50.350;7.578;2022-07-04T04:22:59;100160.66;;;18.35;54.13
47883;BME280;37739;50.350;7.578;2022-07-04T04:25:24;100168.56;;;18.44;53.92
47883;BME280;37739;50.350;7.578;2022-07-04T04:27:52;100166.75;;;18.37;54.23
47883;BME280;37739;50.350;7.578;2022-07-04T04:30:17;100171.84;;;18.27;54.32
47883;BME280;37739;50.350;7.578;2022-07-04T04:32:45;100173.47;;;18.17;54.62
47883;BME280;37739;50.350;7.578;2022-07-04T04:35:10;100166.47;;;18.13;54.77
47883;BME280;37739;50.350;7.578;2022-07-04T04:37:38;100176.94;;;18.19;54.53
47883;BME280;37739;50.350;7.578;2022-07-04T04:40:04;100179.59;;;18.23;54.20
47883;BME280;37739;50.350;7.578;2022-07-04T04:42:29;100181.28;;;18.20;54.57
47883;BME280;37739;50.350;7.578;2022-07-04T04:44:55;100184.88;;;18.31;54.03
47883;BME280;37739;50.350;7.578;2022-07-04T04:47:20;100183.03;;;18.24;54.09
47883;BME280;37739;50.350;7.578;2022-07-04T04:49:48;100189.13;;;18.24;54.16
47883;BME280;37739;50.350;7.578;2022-07-04T04:52:16;100187.41;;;18.28;54.16
47883;BME280;37739;50.350;7.578;2022-07-04T04:54:41;100185.75;;;18.33;54.05
47883;BME280;37739;50.350;7.578;2022-07-04T04:57:06;100185.78;;;18.38;54.14
47883;BME280;37739;50.350;7.578;2022-07-04T04:59:32;100184.00;;;18.31;54.51
47883;BME280;37739;50.350;7.578;2022-07-04T05:02:00;100185.63;;;18.24;54.70
47883;BME280;37739;50.350;7.578;2022-07-04T05:04:28;100190.00;;;18.28;54.61
47883;BME280;37739;50.350;7.578;2022-07-04T05:06:53;100191.72;;;18.26;54.61
47883;BME280;37739;50.350;7.578;2022-07-04T05:09:19;100197.84;;;18.31;54.54
47883;BME280;37739;50.350;7.578;2022-07-04T05:11:47;100200.50;;;18.36;54.79
47883;BME280;37739;50.350;7.578;2022-07-04T05:14:15;100200.59;;;18.45;54.30
47883;BME280;37739;50.350;7.578;2022-07-04T05:16:43;100204.25;;;18.62;53.93
47883;BME280;37739;50.350;7.578;2022-07-04T05:19:09;100199.03;;;18.59;53.88
47883;BME280;37739;50.350;7.578;2022-07-04T05:21:34;100205.03;;;18.52;53.96
47883;BME280;37739;50.350;7.578;2022-07-04T05:24:00;100205.81;;;18.47;54.01
47883;BME280;37739;50.350;7.578;2022-07-04T05:26:27;100217.06;;;18.44;54.45
47883;BME280;37739;50.350;7.578;2022-07-04T05:28:55;100215.47;;;18.55;54.48
47883;BME280;37739;50.350;7.578;2022-07-04T05:31:26;100207.66;;;18.54;53.93
47883;BME280;37739;50.350;7.578;2022-07-04T05:33:52;100212.00;;;18.56;53.97
47883;BME280;37739;50.350;7.578;2022-07-04T05:36:19;100217.28;;;18.64;53.70
47883;BME280;37739;50.350;7.578;2022-07-04T05:38:45;100215.63;;;18.74;53.49
47883;BME280;37739;50.350;7.578;2022-07-04T05:41:12;100222.63;;;18.79;53.14
47883;BME280;37739;50.350;7.578;2022-07-04T05:43:40;100223.53;;;18.80;53.20
47883;BME280;37739;50.350;7.578;2022-07-04T05:46:07;100218.25;;;18.74;53.53
47883;BME280;37739;50.350;7.578;2022-07-04T05:48:33;100220.81;;;18.72;53.55
47883;BME280;37739;50.350;7.578;2022-07-04T05:50:59;100218.19;;;18.68;53.24
47883;BME280;37739;50.350;7.578;2022-07-04T05:53:26;100216.44;;;18.68;53.47
47883;BME280;37739;50.350;7.578;2022-07-04T05:55:52;100218.28;;;18.77;52.89
47883;BME280;37739;50.350;7.578;2022-07-04T05:58:17;100211.41;;;18.82;53.57
47883;BME280;37739;50.350;7.578;2022-07-04T06:00:43;100218.22;;;18.71;53.69
47883;BME280;37739;50.350;7.578;2022-07-04T06:03:10;100214.66;;;18.64;54.06
47883;BME280;37739;50.350;7.578;2022-07-04T06:05:39;100213.09;;;18.77;53.47
47883;BME280;37739;50.350;7.578;2022-07-04T06:08:04;100214.91;;;18.82;53.32
47883;BME280;37739;50.350;7.578;2022-07-04T06:10:32;100213.97;;;18.79;53.54
47883;BME280;37739;50.350;7.578;2022-07-04T06:12:58;100220.16;;;18.89;53.45
47883;BME280;37739;50.350;7.578;2022-07-04T06:15:24;100222.84;;;18.96;53.14
47883;BME280;37739;50.350;7.578;2022-07-04T06:17:52;100211.50;;;18.91;53.42
47883;BME280;37739;50.350;7.578;2022-07-04T06:20:22;100218.63;;;19.11;52.45
47883;BME280;37739;50.350;7.578;2022-07-04T06:22:48;100210.00;;;19.13;52.39
47883;BME280;37739;50.350;7.578;2022-07-04T06:25:18;100213.41;;;19.08;52.23
47883;BME280;37739;50.350;7.578;2022-07-04T06:27:49;100213.53;;;19.23;51.99
47883;BME280;37739;50.350;7.578;2022-07-04T06:30:18;100205.72;;;19.21;52.15
47883;BME280;37739;50.350;7.578;2022-07-04T06:32:50;100209.31;;;19.39;52.00
47883;BME280;37739;50.350;7.578;2022-07-04T06:35:23;100216.31;;;19.45;51.84
47883;BME280;37739;50.350;7.578;2022-07-04T06:38:08;100207.69;;;19.50;51.52
47883;BME280;37739;50.350;7.578;2022-07-04T06:40:34;100212.09;;;19.67;51.01
47883;BME280;37739;50.350;7.578;2022-07-04T06:43:02;100214.84;;;19.80;50.67
47883;BME280;37739;50.350;7.578;2022-07-04T06:45:30;100210.53;;;19.83;50.52
47883;BME280;37739;50.350;7.578;2022-07-04T06:47:59;100212.16;;;19.71;51.11
47883;BME280;37739;50.350;7.578;2022-07-04T06:50:24;100208.75;;;19.77;51.20
47883;BME280;37739;50.350;7.578;2022-07-04T06:52:49;100203.69;;;20.05;50.02
47883;BME280;37739;50.350;7.578;2022-07-04T06:55:36;100203.75;;;20.22;49.91
47883;BME280;37739;50.350;7.578;2022-07-04T06:58:06;100204.66;;;20.27;49.01
47883;BME280;37739;50.350;7.578;2022-07-04T07:00:33;100207.28;;;20.31;49.42
47883;BME280;37739;50.350;7.578;2022-07-04T07:03:00;100207.25;;;20.30;49.41
47883;BME280;37739;50.350;7.578;2022-07-04T07:05:26;100196.03;;;20.46;48.75
47883;BME280;37739;50.350;7.578;2022-07-04T07:07:52;100194.28;;;20.40;48.79
47883;BME280;37739;50.350;7.578;2022-07-04T07:10:18;100202.13;;;20.48;48.67
47883;BME280;37739;50.350;7.578;2022-07-04T07:12:44;100200.38;;;20.44;48.35
47883;BME280;37739;50.350;7.578;2022-07-04T07:15:09;100193.44;;;20.57;48.48
47883;BME280;37739;50.350;7.578;2022-07-04T07:17:35;100198.66;;;20.58;47.88
47883;BME280;37739;50.350;7.578;2022-07-04T07:20:04;100191.78;;;20.70;47.55
47883;BME280;37739;50.350;7.578;2022-07-04T07:22:29;100193.50;;;20.63;47.39
47883;BME280;37739;50.350;7.578;2022-07-04T07:24:59;100188.31;;;20.71;47.58
47883;BME280;37739;50.350;7.578;2022-07-04T07:27:24;100188.22;;;20.57;46.48
47883;BME280;37739;50.350;7.578;2022-07-04T07:29:50;100190.91;;;20.72;47.19
47883;BME280;37739;50.350;7.578;2022-07-04T07:32:15;100192.69;;;20.95;46.74
47883;BME280;37739;50.350;7.578;2022-07-04T07:34:47;100192.66;;;20.92;46.38
47883;BME280;37739;50.350;7.578;2022-07-04T07:37:12;100183.13;;;20.85;46.42
47883;BME280;37739;50.350;7.578;2022-07-04T07:39:38;100183.97;;;21.07;46.28
47883;BME280;37739;50.350;7.578;2022-07-04T07:42:03;100183.09;;;21.25;46.27
47883;BME280;37739;50.350;7.578;2022-07-04T07:44:28;100179.63;;;20.78;46.29
47883;BME280;37739;50.350;7.578;2022-07-04T07:46:54;100184.81;;;20.78;46.74
47883;BME280;37739;50.350;7.578;2022-07-04T07:49:19;100180.50;;;21.17;46.19
47883;BME280;37739;50.350;7.578;2022-07-04T07:51:45;100183.09;;;21.25;45.11
47883;BME280;37739;50.350;7.578;2022-07-04T07:54:10;100178.78;;;21.16;45.52
47883;BME280;37739;50.350;7.578;2022-07-04T07:56:35;100177.88;;;21.35;44.91
47883;BME280;37739;50.350;7.578;2022-07-04T07:59:05;100177.03;;;21.60;44.29
47883;BME280;37739;50.350;7.578;2022-07-04T08:01:30;100173.50;;;21.73;43.42
47883;BME280;37739;50.350;7.578;2022-07-04T08:03:56;100169.13;;;21.76;43.37
47883;BME280;37739;50.350;7.578;2022-07-04T08:06:39;100163.94;;;21.73;43.54
47883;BME280;37739;50.350;7.578;2022-07-04T08:09:05;100161.28;;;21.83;41.74
47883;BME280;37739;50.350;7.578;2022-07-04T08:11:33;100156.97;;;21.69;42.59
47883;BME280;37739;50.350;7.578;2022-07-04T08:14:01;100162.13;;;21.89;41.98
47883;BME280;37739;50.350;7.578;2022-07-04T08:16:31;100162.16;;;21.79;41.77
47883;BME280;37739;50.350;7.578;2022-07-04T08:18:59;100150.88;;;21.69;41.92
47883;BME280;37739;50.350;7.578;2022-07-04T08:21:25;100155.09;;;22.05;41.68
47883;BME280;37739;50.350;7.578;2022-07-04T08:23:50;100151.53;;;22.25;41.11
47883;BME280;37739;50.350;7.578;2022-07-04T08:26:18;100157.66;;;22.14;40.34
47883;BME280;37739;50.350;7.578;2022-07-04T08:28:46;100148.03;;;22.30;41.01
47883;BME280;37739;50.350;7.578;2022-07-04T08:31:15;100148.84;;;22.45;39.68
47883;BME280;37739;50.350;7.578;2022-07-04T08:33:41;100158.34;;;22.57;39.93
47883;BME280;37739;50.350;7.578;2022-07-04T08:36:06;100161.88;;;22.52;39.57
47883;BME280;37739;50.350;7.578;2022-07-04T08:38:33;100158.34;;;22.57;39.53
47883;BME280;37739;50.350;7.578;2022-07-04T08:41:02;100157.44;;;22.59;39.71
47883;BME280;37739;50.350;7.578;2022-07-04T08:43:29;100157.22;;;22.91;39.19
47883;BME280;37739;50.350;7.578;2022-07-04T08:45:59;100151.09;;;22.96;38.69
47883;BME280;37739;50.350;7.578;2022-07-04T08:48:25;100148.28;;;23.20;38.64
47883;BME280;37739;50.350;7.578;2022-07-04T08:50:55;100142.19;;;23.20;37.01
47883;BME280;37739;50.350;7.578;2022-07-04T08:53:28;100149.22;;;23.13;37.54
47883;BME280;37739;50.350;7.578;2022-07-04T08:55:55;100139.41;;;23.37;37.49
47883;BME280;37739;50.350;7.578;2022-07-04T08:58:42;100146.75;;;22.96;37.07
47883;BME280;37739;50.350;7.578;2022-07-04T09:01:08;100147.56;;;23.04;37.39
47883;BME280;37739;50.350;7.578;2022-07-04T09:03:44;100144.59;;;23.43;36.75
47883;BME280;37739;50.350;7.578;2022-07-04T09:06:10;100138.38;;;23.53;36.03
47883;BME280;37739;50.350;7.578;2022-07-04T09:08:37;100143.56;;;23.58;33.38
47883;BME280;37739;50.350;7.578;2022-07-04T09:11:03;100133.97;;;23.57;33.71
47883;BME280;37739;50.350;7.578;2022-07-04T09:13:31;100137.41;;;23.60;32.52
47883;BME280;37739;50.350;7.578;2022-07-04T09:15:57;100147.16;;;23.46;32.36
47883;BME280;37739;50.350;7.578;2022-07-04T09:18:31;100144.59;;;23.40;33.00
47883;BME280;37739;50.350;7.578;2022-07-04T09:21:01;100132.97;;;23.68;34.04
47883;BME280;37739;50.350;7.578;2022-07-04T09:23:29;100133.19;;;23.50;33.65
47883;BME280;37739;50.350;7.578;2022-07-04T09:26:08;100136.13;;;23.98;32.03
47883;BME280;37739;50.350;7.578;2022-07-04T09:28:34;100142.19;;;24.02;32.08
47883;BME280;37739;50.350;7.578;2022-07-04T09:31:00;100141.28;;;24.06;32.88
47883;BME280;37739;50.350;7.578;2022-07-04T09:33:48;100143.63;;;24.24;31.29
47883;BME280;37739;50.350;7.578;2022-07-04T09:36:19;100154.94;;;24.29;32.57
47883;BME280;37739;50.350;7.578;2022-07-04T09:44:45;100148.09;;;24.81;31.61
47883;BME280;37739;50.350;7.578;2022-07-04T09:47:26;100151.28;;;25.00;30.21
47883;BME280;37739;50.350;7.578;2022-07-04T09:50:18;100139.19;;;24.90;30.26
47883;BME280;37739;50.350;7.578;2022-07-04T09:52:57;100143.13;;;24.61;29.91
47883;BME280;37739;50.350;7.578;2022-07-04T09:58:00;100136.66;;;24.85;28.51
47883;BME280;37739;50.350;7.578;2022-07-04T10:00:29;100134.66;;;25.00;28.95
47883;BME280;37739;50.350;7.578;2022-07-04T10:02:56;100128.25;;;25.16;29.55
47883;BME280;37739;50.350;7.578;2022-07-04T10:05:28;100114.84;;;25.35;30.20
47883;BME280;37739;50.350;7.578;2022-07-04T10:07:55;100111.41;;;25.30;29.35
47883;BME280;37739;50.350;7.578;2022-07-04T10:12:58;100105.56;;;25.60;30.26
47883;BME280;37739;50.350;7.578;2022-07-04T10:15:27;100108.38;;;25.96;29.55
47883;BME280;37739;50.350;7.578;2022-07-04T10:17:52;100103.28;;;25.43;28.23
47883;BME280;37739;50.350;7.578;2022-07-04T10:20:18;100107.41;;;25.55;28.83
47883;BME280;37739;50.350;7.578;2022-07-04T10:22:43;100103.72;;;25.65;29.21
47883;BME280;37739;50.350;7.578;2022-07-04T10:25:09;100104.13;;;25.88;28.71
47883;BME280;37739;50.350;7.578;2022-07-04T10:27:40;100102.09;;;26.02;27.88
47883;BME280;37739;50.350;7.578;2022-07-04T10:30:09;100098.75;;;26.34;28.69
47883;BME280;37739;50.350;7.578;2022-07-04T10:32:35;100100.91;;;26.17;29.28
47883;BME280;37739;50.350;7.578;2022-07-04T10:35:01;100102.06;;;26.42;29.00
47883;BME280;37739;50.350;7.578;2022-07-04T10:48:32;100110.94;;;26.38;27.45
47883;BME280;37739;50.350;7.578;2022-07-04T10:51:01;100113.59;;;26.76;25.87
47883;BME280;37739;50.350;7.578;2022-07-04T10:53:27;100105.44;;;27.19;27.00
47883;BME280;37739;50.350;7.578;2022-07-04T10:58:44;100094.75;;;27.58;26.50
47883;BME280;37739;50.350;7.578;2022-07-04T11:01:17;100097.63;;;27.80;25.68
47883;BME280;37739;50.350;7.578;2022-07-04T11:03:48;100105.44;;;28.15;26.01
47883;BME280;37739;50.350;7.578;2022-07-04T11:11:51;100110.25;;;27.69;26.14
47883;BME280;37739;50.350;7.578;2022-07-04T11:17:01;100096.78;;;28.10;25.91
47883;BME280;37739;50.350;7.578;2022-07-04T11:19:27;100096.47;;;28.20;24.87
47883;BME280;37739;50.350;7.578;2022-07-04T11:21:55;100091.09;;;28.50;26.15
47883;BME280;37739;50.350;7.578;2022-07-04T11:24:24;100092.41;;;28.92;24.82
47883;BME280;37739;50.350;7.578;2022-07-04T11:26:55;100091.81;;;29.35;24.84
47883;BME280;37739;50.350;7.578;2022-07-04T11:29:23;100090.16;;;29.56;24.59
47883;BME280;37739;50.350;7.578;2022-07-04T11:31:51;100089.47;;;29.51;24.67
47883;BME280;37739;50.350;7.578;2022-07-04T11:34:20;100080.84;;;29.46;24.97
47883;BME280;37739;50.350;7.578;2022-07-04T11:36:48;100095.56;;;29.53;24.92
47883;BME280;37739;50.350;7.578;2022-07-04T11:39:16;100096.34;;;29.32;24.02
47883;BME280;37739;50.350;7.578;2022-07-04T11:41:47;100088.31;;;28.83;25.10
47883;BME280;37739;50.350;7.578;2022-07-04T11:44:34;100091.22;;;28.47;25.14
47883;BME280;37739;50.350;7.578;2022-07-04T11:47:41;100083.69;;;28.90;25.13
47883;BME280;37739;50.350;7.578;2022-07-04T11:50:14;100091.09;;;29.30;23.57
47883;BME280;37739;50.350;7.578;2022-07-04T11:52:41;100095.66;;;29.75;24.63
47883;BME280;37739;50.350;7.578;2022-07-04T11:55:12;100085.25;;;29.69;24.23
47883;BME280;37739;50.350;7.578;2022-07-04T11:57:44;100092.31;;;30.40;23.43
47883;BME280;37739;50.350;7.578;2022-07-04T12:02:38;100077.34;;;30.81;23.10
47883;BME280;37739;50.350;7.578;2022-07-04T12:05:11;100088.94;;;30.79;21.80
47883;BME280;37739;50.350;7.578;2022-07-04T12:07:38;100089.84;;;30.35;23.21
47883;BME280;37739;50.350;7.578;2022-07-04T12:13:04;100079.97;;;30.17;22.72
47883;BME280;37739;50.350;7.578;2022-07-04T12:15:44;100071.72;;;30.24;22.45
47883;BME280;37739;50.350;7.578;2022-07-04T12:18:27;100079.81;;;30.43;22.49
47883;BME280;37739;50.350;7.578;2022-07-04T12:20:54;100075.81;;;29.87;23.17
47883;BME280;37739;50.350;7.578;2022-07-04T12:23:23;100077.22;;;30.42;23.09
47883;BME280;37739;50.350;7.578;2022-07-04T12:25:53;100076.75;;;30.75;21.89
47883;BME280;37739;50.350;7.578;2022-07-04T12:28:21;100068.22;;;30.88;22.66
47883;BME280;37739;50.350;7.578;2022-07-04T12:30:57;100063.94;;;30.64;22.77
47883;BME280;37739;50.350;7.578;2022-07-04T12:33:28;100070.50;;;30.55;22.68
47883;BME280;37739;50.350;7.578;2022-07-04T12:35:59;100061.88;;;30.06;22.73
47883;BME280;37739;50.350;7.578;2022-07-04T12:41:06;100059.22;;;30.06;23.20
47883;BME280;37739;50.350;7.578;2022-07-04T12:46:04;100056.16;;;30.61;23.06
47883;BME280;37739;50.350;7.578;2022-07-04T12:48:32;100053.19;;;30.68;22.39
47883;BME280;37739;50.350;7.578;2022-07-04T12:51:14;100057.09;;;30.80;22.22
47883;BME280;37739;50.350;7.578;2022-07-04T12:53:41;100044.88;;;30.98;22.51
47883;BME280;37739;50.350;7.578;2022-07-04T12:56:08;100041.41;;;31.75;21.75
47883;BME280;37739;50.350;7.578;2022-07-04T12:58:36;100032.22;;;32.20;21.25
47883;BME280;37739;50.350;7.578;2022-07-04T13:01:04;100033.81;;;31.67;21.80
47883;BME280;37739;50.350;7.578;2022-07-04T13:03:29;100025.19;;;31.43;22.08
47883;BME280;37739;50.350;7.578;2022-07-04T13:05:57;100030.56;;;31.42;22.57
47883;BME280;37739;50.350;7.578;2022-07-04T13:08:22;100034.47;;;31.54;22.01
47883;BME280;37739;50.350;7.578;2022-07-04T13:10:50;100039.25;;;31.83;21.57
47883;BME280;37739;50.350;7.578;2022-07-04T13:13:35;100028.16;;;31.75;21.76
47883;BME280;37739;50.350;7.578;2022-07-04T13:16:01;100034.47;;;31.73;22.23
47883;BME280;37739;50.350;7.578;2022-07-04T13:18:26;100037.44;;;31.85;21.25
47883;BME280;37739;50.350;7.578;2022-07-04T13:20:51;100043.69;;;31.45;21.50
47883;BME280;37739;50.350;7.578;2022-07-04T13:23:17;100041.66;;;31.89;22.02
47883;BME280;37739;50.350;7.578;2022-07-04T13:25:42;100032.47;;;32.33;21.50
47883;BME280;37739;50.350;7.578;2022-07-04T13:28:07;100027.72;;;33.10;21.07
47883;BME280;37739;50.350;7.578;2022-07-04T13:30:35;100024.94;;;33.13;21.17
47883;BME280;37739;50.350;7.578;2022-07-04T13:33:02;100029.91;;;33.68;20.73
47883;BME280;37739;50.350;7.578;2022-07-04T13:35:28;100022.53;;;33.06;20.62
47883;BME280;37739;50.350;7.578;2022-07-04T13:37:53;100024.34;;;31.81;22.18